Time;durP1;ratioP1;P1;durP2;ratioP2;P2;SDS_P1;SDS_P2;PMS_P1;PMS_P2;Temp;Humidity;BMP_temperature;BMP_pressure;BME280_temperature;BME280_humidity;BME280_pressure;Samples;Min_cycle;Max_cycle;Signal;HPM_P1;HPM_P2
2021/09/20 00:02:13;;;;;;;5.57;4.10;;;;;;;16.02;100.00;96071.25;5050312;28;20282;-78
2021/09/20 00:04:42;;;;;;;7.13;4.83;;;;;;;16.02;100.00;96071.25;5051882;28;20211;-78
2021/09/20 00:07:09;;;;;;;5.03;4.00;;;;;;;15.84;100.00;96069.16;5052133;28;20207;-78
2021/09/20 00:09:37;;;;;;;4.90;4.47;;;;;;;15.74;100.00;96058.91;5051988;28;20626;-78
2021/09/20 00:12:04;;;;;;;9.30;5.20;;;;;;;15.77;100.00;96053.22;5052039;28;20201;-78
2021/09/20 00:14:32;;;;;;;5.93;4.70;;;;;;;15.89;100.00;96054.28;5052197;28;20196;-78
2021/09/20 00:16:59;;;;;;;4.93;4.53;;;;;;;15.93;100.00;96060.00;5051865;28;20220;-77
2021/09/20 00:19:26;;;;;;;6.77;5.07;;;;;;;15.87;100.00;96068.75;5052121;28;20291;-77
2021/09/20 00:21:55;;;;;;;5.20;4.70;;;;;;;15.97;100.00;96052.47;5051660;28;20291;-78
2021/09/20 00:24:23;;;;;;;4.50;4.20;;;;;;;15.96;100.00;96050.84;5052405;28;20204;-78
2021/09/20 00:26:51;;;;;;;5.30;4.10;;;;;;;15.82;100.00;96048.13;5051803;28;20214;-78
2021/09/20 00:29:18;;;;;;;6.17;4.30;;;;;;;15.81;100.00;96038.56;5051731;28;20310;-78
2021/09/20 00:31:46;;;;;;;6.27;4.47;;;;;;;15.69;100.00;96038.31;5051711;28;20295;-78
2021/09/20 00:34:13;;;;;;;6.50;4.93;;;;;;;15.75;100.00;96038.50;5051940;28;20583;-77
2021/09/20 00:36:40;;;;;;;5.07;4.67;;;;;;;15.80;100.00;96031.63;5051770;28;20208;-78
2021/09/20 00:39:09;;;;;;;4.73;4.43;;;;;;;15.85;100.00;96036.31;5052000;28;20205;-78
2021/09/20 00:41:36;;;;;;;4.87;4.37;;;;;;;15.75;100.00;96038.50;5051615;28;20283;-78
2021/09/20 00:44:04;;;;;;;6.00;5.37;;;;;;;15.69;100.00;96033.00;5051855;28;20204;-78
2021/09/20 00:46:31;;;;;;;7.70;4.63;;;;;;;15.69;100.00;96033.00;5051595;28;20669;-77
2021/09/20 00:48:58;;;;;;;5.50;4.33;;;;;;;15.66;100.00;96041.34;5051536;28;20285;-77
2021/09/20 00:51:26;;;;;;;4.97;4.57;;;;;;;15.61;100.00;96042.91;5051086;28;20701;-77
2021/09/20 00:53:53;;;;;;;5.03;4.53;;;;;;;15.54;100.00;96039.38;5051746;28;20315;-78
2021/09/20 00:56:22;;;;;;;10.53;4.20;;;;;;;15.58;100.00;96035.34;5051733;28;20207;-78
2021/09/20 00:58:50;;;;;;;5.67;3.70;;;;;;;15.65;100.00;96036.19;5051360;28;20607;-78
2021/09/20 01:01:17;;;;;;;7.77;4.40;;;;;;;15.50;100.00;96027.56;5051366;28;20267;-77
2021/09/20 01:03:44;;;;;;;4.40;3.90;;;;;;;15.62;100.00;96033.94;5051953;28;20336;-77
2021/09/20 01:06:12;;;;;;;5.27;4.87;;;;;;;15.65;100.00;96029.06;5051683;28;20225;-78
2021/09/20 01:08:39;;;;;;;4.20;3.80;;;;;;;15.66;100.00;96027.28;5051890;28;20205;-77
2021/09/20 01:11:06;;;;;;;4.40;3.60;;;;;;;15.58;100.00;96028.19;5051093;28;20299;-77
2021/09/20 01:13:35;;;;;;;5.37;3.90;;;;;;;15.61;100.00;96019.06;5051530;28;20695;-77
2021/09/20 01:16:02;;;;;;;4.27;3.97;;;;;;;15.50;100.00;96027.56;5051686;28;20200;-77
2021/09/20 01:18:30;;;;;;;5.23;4.37;;;;;;;15.44;100.00;96021.19;5051302;28;20228;-77
2021/09/20 01:20:57;;;;;;;4.57;4.23;;;;;;;15.39;100.00;96023.63;5051333;28;20291;-77
2021/09/20 01:23:26;;;;;;;4.80;3.67;;;;;;;15.49;100.00;96017.97;5051122;28;20664;-77
2021/09/20 01:25:53;;;;;;;4.70;4.30;;;;;;;15.50;100.00;96027.56;5051376;28;20200;-77
2021/09/20 01:28:21;;;;;;;4.50;4.13;;;;;;;15.42;100.00;96024.06;5051583;28;20200;-77
2021/09/20 01:30:48;;;;;;;5.03;4.50;;;;;;;15.54;100.00;96026.16;5051597;28;20204;-77
2021/09/20 01:33:15;;;;;;;4.37;4.03;;;;;;;15.71;100.00;96024.03;5051012;28;20238;-77
2021/09/20 01:35:43;;;;;;;5.73;4.80;;;;;;;15.63;100.00;96030.28;5051330;28;20189;-77
2021/09/20 01:38:10;;;;;;;5.77;4.20;;;;;;;15.61;100.00;96024.34;5051086;28;20229;-77
2021/09/20 01:40:39;;;;;;;3.90;3.60;;;;;;;15.58;100.00;96027.38;5051262;28;20199;-77
2021/09/20 01:43:06;;;;;;;4.93;4.57;;;;;;;15.53;100.00;96014.75;5050838;28;20204;-77
2021/09/20 01:45:33;;;;;;;5.03;4.57;;;;;;;15.42;100.00;96013.47;5051505;28;20627;-78
2021/09/20 01:48:01;;;;;;;4.97;4.47;;;;;;;15.66;100.00;96014.03;5051292;28;20267;-77
2021/09/20 01:50:28;;;;;;;4.30;4.00;;;;;;;15.55;100.00;96019.81;5051178;28;20676;-77
2021/09/20 01:52:55;;;;;;;6.73;4.23;;;;;;;15.62;100.00;96012.72;5050488;28;20692;-77
2021/09/20 01:55:23;;;;;;;5.00;4.23;;;;;;;15.66;100.00;96017.50;5051213;28;20571;-77
2021/09/20 01:57:52;;;;;;;4.53;4.13;;;;;;;15.35;100.00;96017.91;5050833;28;20311;-78
2021/09/20 02:00:19;;;;;;;5.80;4.40;;;;;;;15.28;100.00;96013.59;5051103;28;20240;-78
2021/09/20 02:02:47;;;;;;;11.23;4.13;;;;;;;15.36;100.00;96008.94;5051193;28;20296;-77
2021/09/20 02:05:15;;;;;;;5.67;3.80;;;;;;;15.45;100.00;96007.78;5054669;28;20289;-78
2021/09/20 02:07:43;;;;;;;4.73;4.33;;;;;;;15.39;100.00;96013.03;5054375;28;20242;-77
2021/09/20 02:10:13;;;;;;;4.33;3.93;;;;;;;15.36;100.00;96014.22;5054578;28;20196;-77
2021/09/20 02:12:41;;;;;;;4.10;3.70;;;;;;;15.37;100.00;96015.03;5054363;28;20202;-77
2021/09/20 02:15:11;;;;;;;5.63;3.83;;;;;;;15.32;100.00;96010.34;5054192;28;20210;-77
2021/09/20 02:17:39;;;;;;;3.97;3.67;;;;;;;15.44;100.00;96008.75;5054102;28;20240;-77
2021/09/20 02:20:08;;;;;;;6.90;4.33;;;;;;;15.45;100.00;96006.97;5054340;28;20211;-77
2021/09/20 02:22:35;;;;;;;4.20;3.90;;;;;;;15.41;100.00;96011.00;5054199;28;20205;-77
2021/09/20 02:25:04;;;;;;;4.60;4.20;;;;;;;15.53;100.00;96000.69;5054532;28;20209;-77
2021/09/20 02:27:31;;;;;;;9.80;4.00;;;;;;;15.55;100.00;96002.13;5054021;28;20295;-77
2021/09/20 02:29:59;;;;;;;4.13;3.77;;;;;;;15.43;100.00;96001.03;5054193;28;20692;-77
2021/09/20 02:32:27;;;;;;;4.53;4.13;;;;;;;15.35;100.00;96002.00;5053991;28;20204;-77
2021/09/20 02:34:55;;;;;;;4.40;4.00;;;;;;;15.33;100.00;96001.38;5054212;28;20201;-78
2021/09/20 02:37:22;;;;;;;4.77;4.10;;;;;;;15.45;100.00;96002.47;5053761;28;20237;-77
2021/09/20 02:39:49;;;;;;;5.17;4.17;;;;;;;15.32;100.00;96006.88;5054320;28;20633;-78
2021/09/20 02:42:17;;;;;;;4.30;3.90;;;;;;;15.28;100.00;95998.50;5053743;28;20202;-78
2021/09/20 02:44:44;;;;;;;5.00;4.50;;;;;;;15.20;100.00;95998.63;5053614;28;20207;-78
2021/09/20 02:47:11;;;;;;;4.37;3.97;;;;;;;15.27;100.00;95999.50;5053676;28;20203;-78
2021/09/20 02:49:40;;;;;;;5.50;4.27;;;;;;;15.17;100.00;95999.88;5054107;28;20271;-78
2021/09/20 02:52:08;;;;;;;4.23;3.87;;;;;;;15.24;100.00;95997.28;5053545;28;20211;-78
2021/09/20 02:54:35;;;;;;;6.23;4.43;;;;;;;15.31;100.00;96000.78;5053259;28;20318;-78
2021/09/20 02:57:02;;;;;;;4.67;4.07;;;;;;;15.15;100.00;96006.34;5053525;28;20578;-78
2021/09/20 02:59:30;;;;;;;5.33;4.57;;;;;;;15.13;100.00;95988.00;5053523;28;20235;-78
2021/09/20 03:01:58;;;;;;;5.70;4.10;;;;;;;15.31;100.00;95998.13;5053661;28;20245;-78
2021/09/20 03:04:25;;;;;;;4.13;3.73;;;;;;;15.20;100.00;95998.63;5053287;28;20200;-78
2021/09/20 03:06:54;;;;;;;6.20;4.63;;;;;;;15.16;100.00;95989.47;5053592;28;20214;-78
2021/09/20 03:09:21;;;;;;;4.83;4.10;;;;;;;15.16;100.00;95997.41;5053711;28;20633;-78
2021/09/20 03:11:48;;;;;;;6.03;4.43;;;;;;;15.05;100.00;95990.81;5053240;28;20199;-78
2021/09/20 03:14:16;;;;;;;4.13;3.77;;;;;;;15.11;100.00;95991.88;5053050;28;20234;-78
2021/09/20 03:16:43;;;;;;;4.87;3.90;;;;;;;15.09;100.00;95985.94;5053203;28;20210;-78
2021/09/20 03:19:11;;;;;;;6.93;4.67;;;;;;;15.14;100.00;95996.78;5053128;28;20743;-78
2021/09/20 03:21:38;;;;;;;5.77;4.20;;;;;;;15.10;100.00;95995.53;5053039;28;20201;-78
2021/09/20 03:24:07;;;;;;;3.80;3.50;;;;;;;15.02;100.00;96003.63;5053223;28;20194;-78
2021/09/20 03:26:34;;;;;;;8.23;5.00;;;;;;;14.86;100.00;96012.63;5052982;28;20691;-78
2021/09/20 03:29:02;;;;;;;6.00;4.27;;;;;;;14.95;100.00;96004.38;5053361;28;20651;-77
2021/09/20 03:31:29;;;;;;;4.60;4.30;;;;;;;14.95;100.00;95999.09;5053112;28;20230;-77
2021/09/20 03:33:56;;;;;;;4.17;3.77;;;;;;;14.79;100.00;95996.75;5052677;28;20198;-77
2021/09/20 03:36:24;;;;;;;3.80;3.50;;;;;;;14.84;100.00;95999.63;5053104;28;20261;-78
2021/09/20 03:38:51;;;;;;;5.70;4.10;;;;;;;14.74;100.00;95991.19;5052738;28;20277;-77
2021/09/20 03:41:20;;;;;;;4.10;3.70;;;;;;;14.96;100.00;95991.97;5052646;28;20238;-78
2021/09/20 03:43:47;;;;;;;3.90;3.60;;;;;;;15.07;100.00;95998.56;5052458;28;20239;-77
2021/09/20 03:46:14;;;;;;;5.63;4.63;;;;;;;14.92;100.00;95999.47;5052575;28;20607;-78
2021/09/20 03:48:42;;;;;;;4.83;3.87;;;;;;;14.86;100.00;96005.56;5052590;28;20290;-78
2021/09/20 03:51:09;;;;;;;7.60;4.30;;;;;;;14.80;100.00;96010.78;5052588;28;20280;-78
2021/09/20 03:53:36;;;;;;;5.53;4.17;;;;;;;14.66;100.00;96008.03;5052562;28;20312;-78
2021/09/20 03:56:04;;;;;;;4.33;4.00;;;;;;;14.88;100.00;96003.50;5052140;28;20280;-78
2021/09/20 03:58:33;;;;;;;4.20;3.90;;;;;;;14.78;100.00;96010.13;5043782;28;20243;-78
2021/09/20 04:01:01;;;;;;;4.23;3.83;;;;;;;14.73;100.00;96005.44;5049931;28;20215;-79
2021/09/20 04:03:28;;;;;;;4.20;3.80;;;;;;;14.67;100.00;96019.41;5050613;28;20232;-79
2021/09/20 04:05:55;;;;;;;4.50;4.10;;;;;;;14.82;100.00;96022.78;5050849;28;20713;-79
2021/09/20 04:08:27;;;;;;;5.63;4.17;;;;;;;14.81;100.00;96020.34;5052003;28;20191;-79
2021/09/20 04:10:55;;;;;;;5.53;3.80;;;;;;;14.88;100.00;96024.69;5052282;28;20198;-79
2021/09/20 04:13:22;;;;;;;4.70;3.97;;;;;;;14.90;100.00;96030.59;5052224;28;20200;-79
2021/09/20 04:15:53;;;;;;;4.63;3.73;;;;;;;14.97;100.00;96031.47;5052430;28;20202;-79
2021/09/20 04:18:22;;;;;;;6.77;4.20;;;;;;;14.94;100.00;96026.56;5052003;28;20212;-78
2021/09/20 04:20:51;;;;;;;5.63;4.00;;;;;;;14.66;100.00;96023.88;5052103;28;20209;-78
2021/09/20 04:23:19;;;;;;;5.43;3.80;;;;;;;14.99;100.00;96016.22;5051706;28;20700;-79
2021/09/20 04:25:47;;;;;;;4.90;4.30;;;;;;;14.90;100.00;96014.72;5051401;28;20236;-79
2021/09/20 04:28:15;;;;;;;10.53;3.80;;;;;;;14.94;100.00;96026.56;5051851;28;20205;-79
2021/09/20 04:30:43;;;;;;;5.20;4.00;;;;;;;15.01;100.00;96041.69;5051981;28;20258;-79
2021/09/20 04:33:13;;;;;;;6.50;4.23;;;;;;;14.66;100.00;96047.69;5051629;28;20195;-79
2021/09/20 04:35:41;;;;;;;6.07;4.00;;;;;;;14.76;100.00;96055.31;5051740;28;20195;-78
2021/09/20 04:38:09;;;;;;;6.87;4.80;;;;;;;14.84;100.00;96051.72;5051641;28;20310;-79
2021/09/20 04:40:38;;;;;;;9.10;5.40;;;;;;;14.87;100.00;96044.22;5051615;28;20199;-79
2021/09/20 04:43:07;;;;;;;4.10;3.80;;;;;;;15.02;100.00;96038.84;5051160;28;20293;-79
2021/09/20 04:45:35;;;;;;;5.17;4.77;;;;;;;15.08;100.00;96038.06;5051822;28;20213;-79
2021/09/20 04:48:02;;;;;;;4.17;3.77;;;;;;;15.19;100.00;96029.59;5051591;28;20202;-79
2021/09/20 04:50:31;;;;;;;5.20;4.70;;;;;;;15.18;100.00;96030.63;5051769;28;20251;-79
2021/09/20 04:52:58;;;;;;;5.03;4.53;;;;;;;15.43;100.00;96030.97;5051623;28;20226;-79
2021/09/20 04:55:26;;;;;;;7.33;4.20;;;;;;;15.37;100.00;96033.59;5051713;28;20285;-78
2021/09/20 04:57:54;;;;;;;4.50;3.93;;;;;;;15.24;100.00;96026.38;5051467;28;20744;-78
2021/09/20 05:00:22;;;;;;;9.90;6.63;;;;;;;15.24;100.00;96026.38;5051736;28;20282;-79
2021/09/20 05:02:49;;;;;;;7.97;7.17;;;;;;;15.31;100.00;96034.34;5051521;28;20223;-79
2021/09/20 05:05:16;;;;;;;7.33;5.13;;;;;;;15.38;100.00;96037.88;5051977;28;20289;-79
2021/09/20 05:07:45;;;;;;;6.67;5.97;;;;;;;15.41;100.00;96040.13;5051492;28;20678;-79
2021/09/20 05:10:13;;;;;;;9.87;5.60;;;;;;;15.46;100.00;96043.03;5051583;28;20198;-79
2021/09/20 05:12:41;;;;;;;9.93;8.40;;;;;;;15.40;100.00;96036.66;5051412;28;20198;-79
2021/09/20 05:15:09;;;;;;;9.70;8.70;;;;;;;15.41;100.00;96033.03;5051336;28;20731;-79
2021/09/20 05:17:37;;;;;;;8.17;7.37;;;;;;;15.46;100.00;96030.59;5051364;28;20200;-79
2021/09/20 05:20:05;;;;;;;6.93;6.17;;;;;;;15.57;100.00;96023.13;5051490;28;20226;-79
2021/09/20 05:22:33;;;;;;;6.20;5.43;;;;;;;15.70;100.00;96015.28;5051263;28;20262;-79
2021/09/20 05:25:02;;;;;;;5.97;5.10;;;;;;;15.89;100.00;96013.72;5051255;28;20672;-79
2021/09/20 05:27:29;;;;;;;4.70;4.30;;;;;;;15.99;100.00;96016.00;5051233;28;20725;-79
2021/09/20 05:29:58;;;;;;;4.17;3.87;;;;;;;15.96;100.00;96013.72;5051391;28;20692;-80
2021/09/20 05:32:25;;;;;;;4.73;4.33;;;;;;;16.01;100.00;96029.88;5051240;28;20197;-79
2021/09/20 05:34:52;;;;;;;9.33;4.93;;;;;;;16.06;100.00;96025.59;5051324;28;20204;-80
2021/09/20 05:37:20;;;;;;;5.43;4.67;;;;;;;16.01;100.00;96016.63;5052687;28;20295;-79
2021/09/20 05:39:47;;;;;;;5.43;4.93;;;;;;;16.20;100.00;96010.56;5055055;28;20316;-79
2021/09/20 05:42:16;;;;;;;5.83;5.33;;;;;;;16.16;100.00;96011.97;5055116;28;20283;-80
2021/09/20 05:44:43;;;;;;;8.40;5.97;;;;;;;16.22;100.00;96005.88;5054908;28;20203;-79
2021/09/20 05:47:11;;;;;;;6.67;5.97;;;;;;;16.35;100.00;96008.56;5054889;28;20233;-79
2021/09/20 05:49:38;;;;;;;6.23;5.63;;;;;;;16.35;100.00;96007.75;5055009;28;20299;-79
2021/09/20 05:52:06;;;;;;;5.90;5.40;;;;;;;16.24;100.00;96008.31;5054708;28;20211;-79
2021/09/20 05:54:34;;;;;;;7.93;5.67;;;;;;;16.37;100.00;96013.66;5054474;28;20233;-79
2021/09/20 05:57:01;;;;;;;7.57;5.13;;;;;;;16.52;100.00;96001.03;5054925;28;20212;-78
2021/09/20 05:59:30;;;;;;;6.03;5.20;;;;;;;16.60;100.00;96018.59;5054761;28;20713;-78
2021/09/20 06:01:58;;;;;;;5.30;4.67;;;;;;;16.72;100.00;96016.97;5054818;28;20208;-79
2021/09/20 06:04:25;;;;;;;5.67;4.57;;;;;;;16.67;100.00;96019.44;5054491;28;20198;-78
2021/09/20 06:06:53;;;;;;;4.80;4.50;;;;;;;16.75;100.00;96035.16;5054816;28;20251;-78
2021/09/20 06:09:21;;;;;;;5.00;4.60;;;;;;;16.79;100.00;96035.59;5054632;28;20674;-78
2021/09/20 06:11:48;;;;;;;5.83;4.77;;;;;;;16.89;100.00;96030.69;5054700;28;20293;-78
2021/09/20 06:14:15;;;;;;;4.70;4.30;;;;;;;17.03;100.00;96036.81;5054304;28;20288;-79
2021/09/20 06:16:44;;;;;;;5.60;4.97;;;;;;;17.09;100.00;96038.66;5054388;28;20202;-79
2021/09/20 06:19:12;;;;;;;6.33;5.07;;;;;;;17.24;100.00;96025.97;5054671;28;20308;-79
2021/09/20 06:21:39;;;;;;;5.33;4.83;;;;;;;17.34;100.00;96015.75;5054193;28;20198;-78
2021/09/20 06:24:07;;;;;;;4.60;4.20;;;;;;;17.41;100.00;96015.75;5054374;28;20205;-79
2021/09/20 06:26:34;;;;;;;4.50;4.10;;;;;;;17.37;100.00;96016.38;5054160;28;20252;-79
2021/09/20 06:29:01;;;;;;;4.30;4.00;;;;;;;17.35;100.00;96022.72;5054202;28;20200;-79
2021/09/20 06:31:28;;;;;;;5.00;4.30;;;;;;;17.44;100.00;96015.31;5053785;28;20595;-79
2021/09/20 06:33:57;;;;;;;5.50;5.00;;;;;;;17.56;100.00;96012.84;5054150;28;20281;-78
2021/09/20 06:36:25;;;;;;;11.67;10.77;;;;;;;17.72;100.00;96020.34;5054298;28;20201;-79
2021/09/20 06:38:52;;;;;;;9.93;8.97;;;;;;;17.58;100.00;96029.41;5053739;28;20225;-78
2021/09/20 06:41:19;;;;;;;7.00;6.40;;;;;;;17.55;100.00;96043.09;5054134;28;20229;-78
2021/09/20 06:43:47;;;;;;;4.90;4.60;;;;;;;17.33;100.00;96043.34;5054049;28;20198;-78
2021/09/20 06:46:14;;;;;;;13.90;6.47;;;;;;;17.26;100.00;96047.84;5053744;28;20599;-78
2021/09/20 06:48:42;;;;;;;6.80;6.10;;;;;;;17.20;100.00;96043.34;5053249;28;20663;-78
2021/09/20 06:51:11;;;;;;;7.53;5.37;;;;;;;17.39;100.00;96031.09;5053380;28;20651;-79
2021/09/20 06:53:39;;;;;;;5.67;5.17;;;;;;;17.42;100.00;96024.53;5053768;28;20295;-79
2021/09/20 06:56:06;;;;;;;4.83;4.47;;;;;;;17.55;100.00;96014.69;5053888;28;20206;-79
2021/09/20 06:58:35;;;;;;;5.70;5.20;;;;;;;17.78;100.00;96011.59;5053957;28;20204;-79
2021/09/20 07:01:02;;;;;;;7.43;5.53;;;;;;;18.00;100.00;96009.44;5053566;28;20232;-79
2021/09/20 07:03:29;;;;;;;6.50;5.40;;;;;;;18.05;100.00;96014.16;5053368;28;20233;-78
2021/09/20 07:05:56;;;;;;;6.00;5.43;;;;;;;18.23;100.00;96021.44;5053796;28;20198;-79
2021/09/20 07:08:25;;;;;;;6.80;6.20;;;;;;;18.44;100.00;96022.94;5053424;28;20742;-79
2021/09/20 07:10:53;;;;;;;7.40;5.53;;;;;;;18.51;100.00;96024.53;5053173;28;20197;-78
2021/09/20 07:13:20;;;;;;;5.77;5.33;;;;;;;18.80;100.00;96018.84;5053625;28;20206;-79
2021/09/20 07:15:47;;;;;;;6.23;5.73;;;;;;;19.09;100.00;96010.22;5053332;28;20241;-79
2021/09/20 07:18:15;;;;;;;6.23;5.63;;;;;;;18.81;100.00;96013.31;5053194;28;20204;-79
2021/09/20 07:20:44;;;;;;;6.07;5.43;;;;;;;18.89;100.00;96004.25;5052989;28;20313;-79
2021/09/20 07:23:11;;;;;;;7.63;6.30;;;;;;;19.28;100.00;96002.25;5053095;28;20251;-80
2021/09/20 07:25:40;;;;;;;5.80;5.30;;;;;;;19.36;100.00;96013.47;5053179;28;20214;-80
2021/09/20 07:28:08;;;;;;;8.23;5.63;;;;;;;19.34;100.00;96020.03;5052944;28;20198;-79
2021/09/20 07:30:37;;;;;;;5.50;5.00;;;;;;;19.43;100.00;96021.38;5052872;28;20233;-80
2021/09/20 07:33:04;;;;;;;5.67;5.13;;;;;;;19.60;100.00;96035.75;5052918;28;20288;-80
2021/09/20 07:35:32;;;;;;;6.17;5.53;;;;;;;19.86;100.00;96042.69;5052959;28;20251;-80
2021/09/20 07:37:59;;;;;;;6.43;5.77;;;;;;;20.15;100.00;96043.78;5052773;28;20205;-81
2021/09/20 07:40:28;;;;;;;5.27;4.87;;;;;;;20.51;100.00;96034.13;5052819;28;20722;-81
2021/09/20 07:42:58;;;;;;;5.53;5.03;;;;;;;20.40;100.00;96048.19;5052443;28;20241;-80
2021/09/20 07:45:26;;;;;;;6.00;5.40;;;;;;;20.83;100.00;96042.69;5052871;28;20186;-81
2021/09/20 07:47:53;;;;;;;7.00;5.50;;;;;;;20.95;100.00;96040.03;5052849;28;20667;-79
2021/09/20 07:50:22;;;;;;;5.63;5.07;;;;;;;20.96;100.00;96047.03;5052790;28;20296;-80
2021/09/20 07:52:50;;;;;;;5.97;5.47;;;;;;;21.12;100.00;96054.38;5052604;28;20200;-79
2021/09/20 07:55:18;;;;;;;6.93;4.27;;;;;;;21.49;100.00;96064.91;5052666;28;20186;-80
2021/09/20 07:57:46;;;;;;;7.20;3.77;;;;;;;21.49;100.00;96094.31;5052444;28;20582;-78
2021/09/20 08:00:16;;;;;;;10.17;4.80;;;;;;;21.68;100.00;96084.31;5051722;28;20264;-78
2021/09/20 08:02:44;;;;;;;6.83;4.10;;;;;;;21.64;100.00;96090.34;5052718;28;20201;-80
2021/09/20 08:05:12;;;;;;;5.00;4.27;;;;;;;21.74;100.00;96102.09;5052447;28;20229;-82
2021/09/20 08:07:39;;;;;;;5.10;4.47;;;;;;;21.67;100.00;96080.00;5052081;28;20204;-80
2021/09/20 08:10:07;;;;;;;6.03;4.73;;;;;;;21.74;100.00;96075.34;5052415;28;20189;-80
2021/09/20 08:12:35;;;;;;;5.33;4.83;;;;;;;21.86;100.00;96070.00;5052133;28;20197;-80
2021/09/20 08:15:02;;;;;;;7.70;4.47;;;;;;;21.80;100.00;96070.94;5052330;28;20230;-80
2021/09/20 08:17:33;;;;;;;4.33;4.03;;;;;;;22.01;100.00;96064.97;5052150;28;20197;-79
2021/09/20 08:20:00;;;;;;;5.33;4.87;;;;;;;21.70;100.00;96084.91;5052187;28;20210;-79
2021/09/20 08:22:28;;;;;;;6.93;4.90;;;;;;;21.71;100.00;96069.66;5052336;28;20197;-80
2021/09/20 08:24:55;;;;;;;5.07;4.20;;;;;;;21.84;100.00;96075.59;5052272;28;20213;-79
2021/09/20 08:27:23;;;;;;;6.80;5.53;;;;;;;21.97;100.00;96065.69;5051786;28;20757;-80
2021/09/20 08:29:51;;;;;;;9.63;5.63;;;;;;;21.94;100.00;96060.81;5052052;28;20197;-79
2021/09/20 08:32:18;;;;;;;7.13;5.70;;;;;;;21.63;100.00;96059.31;5052187;28;20201;-80
2021/09/20 08:34:48;;;;;;;6.87;6.23;;;;;;;21.39;100.00;96056.63;5051790;28;20666;-80
2021/09/20 08:37:15;;;;;;;8.80;5.90;;;;;;;21.39;100.00;96051.28;5051771;28;20260;-79
2021/09/20 08:39:43;;;;;;;8.90;5.67;;;;;;;21.13;100.00;96050.66;5051842;28;20231;-79
2021/09/20 08:42:10;;;;;;;6.33;5.73;;;;;;;21.25;100.00;96036.50;5051992;28;20294;-80
2021/09/20 08:44:37;;;;;;;6.57;5.63;;;;;;;20.97;100.00;96061.19;5051987;28;20639;-79
2021/09/20 08:47:05;;;;;;;7.27;6.47;;;;;;;20.94;100.00;96061.66;5051667;28;20287;-79
2021/09/20 08:49:34;;;;;;;7.03;6.00;;;;;;;20.77;100.00;96056.16;5052138;28;20204;-79
2021/09/20 08:52:03;;;;;;;8.47;5.50;;;;;;;20.85;100.00;96047.78;5051350;28;20696;-80
2021/09/20 08:54:31;;;;;;;6.63;6.00;;;;;;;20.89;100.00;96039.13;5051629;28;20617;-80
2021/09/20 08:56:58;;;;;;;6.47;5.87;;;;;;;21.28;100.00;96039.53;5051601;28;20244;-79
2021/09/20 08:59:25;;;;;;;7.47;6.67;;;;;;;21.91;100.00;96026.50;5051859;28;20225;-79
2021/09/20 09:01:55;;;;;;;7.87;6.03;;;;;;;22.40;100.00;96049.19;5051608;28;20658;-79
2021/09/20 09:04:30;;;;;;;8.87;5.90;;;;;;;22.61;100.00;96049.56;5051671;28;20237;-80
2021/09/20 09:07:00;;;;;;;6.17;5.60;;;;;;;22.61;100.00;96058.41;5051858;28;20196;-79
2021/09/20 09:09:31;;;;;;;6.80;6.10;;;;;;;22.28;100.00;96059.94;5051718;28;20236;-79
2021/09/20 09:12:17;;;;;;;6.30;4.93;;;;;;;21.80;100.00;96062.91;5052285;28;20276;-80
2021/09/20 09:14:46;;;;;;;6.57;5.97;;;;;;;22.75;100.00;96058.94;5056040;28;20569;-79
2021/09/20 09:17:17;;;;;;;7.77;5.90;;;;;;;23.85;100.00;96079.00;5055766;28;20202;-80
2021/09/20 09:19:47;;;;;;;5.80;5.20;;;;;;;24.32;100.00;96078.56;5055482;28;20260;-80
2021/09/20 09:22:14;;;;;;;5.73;4.80;;;;;;;24.60;100.00;96087.50;5055122;28;20208;-79
2021/09/20 09:24:57;;;;;;;9.73;5.13;;;;;;;25.05;100.00;96094.44;5055436;28;20285;-79
2021/09/20 09:27:25;;;;;;;6.33;4.90;;;;;;;24.76;100.00;96089.28;5055356;28;20277;-79
2021/09/20 09:30:02;;;;;;;7.03;5.37;;;;;;;25.17;100.00;96099.66;5055677;28;20190;-79
2021/09/20 09:32:29;;;;;;;6.90;5.13;;;;;;;25.98;100.00;96099.50;5054964;28;20663;-80
2021/09/20 09:35:02;;;;;;;5.13;4.63;;;;;;;26.68;100.00;96109.03;5055585;28;20229;-79
2021/09/20 09:37:30;;;;;;;6.83;5.03;;;;;;;26.14;100.00;96109.28;5055149;28;20281;-80
2021/09/20 09:40:16;;;;;;;7.17;5.17;;;;;;;25.23;100.00;96104.84;5055094;28;20218;-79
2021/09/20 09:42:44;;;;;;;4.93;4.30;;;;;;;25.43;100.00;96114.16;5055073;28;20196;-80
2021/09/20 09:45:22;;;;;;;9.77;4.67;;;;;;;24.78;100.00;96114.03;5055177;28;20220;-80
2021/09/20 09:47:50;;;;;;;9.80;5.13;;;;;;;24.47;100.00;96094.06;5054936;28;20232;-80
2021/09/20 09:50:23;;;;;;;14.00;5.30;;;;;;;24.66;100.00;96081.94;5055336;28;20198;-80
2021/09/20 09:52:53;;;;;;;7.53;5.27;;;;;;;25.06;100.00;96099.53;5054640;28;20639;-80
2021/09/20 09:55:24;;;;;;;9.23;4.80;;;;;;;25.65;100.00;96095.22;5054803;28;20647;-80
2021/09/20 09:57:51;;;;;;;6.53;4.47;;;;;;;25.64;100.00;96094.41;5054743;28;20185;-80
2021/09/20 10:00:20;;;;;;;6.87;4.37;;;;;;;26.49;100.00;96108.66;5055062;28;20222;-80
2021/09/20 10:02:49;;;;;;;7.57;4.20;;;;;;;26.74;100.00;96126.84;5054621;28;20289;-80
2021/09/20 10:05:18;;;;;;;5.87;4.90;;;;;;;27.37;100.00;96118.66;5054492;28;20197;-80
2021/09/20 10:07:48;;;;;;;8.57;5.47;;;;;;;27.35;100.00;96119.97;5054487;28;20640;-80
2021/09/20 10:10:18;;;;;;;8.90;4.97;;;;;;;27.25;100.00;96123.47;5055002;28;20197;-80
2021/09/20 10:12:51;;;;;;;6.95;4.35;;;;;;;27.58;100.00;96110.56;5054733;28;20225;-80
2021/09/20 10:15:22;;;;;;;5.70;4.38;;;;;;;27.30;100.00;96122.69;5054683;28;20209;-80
2021/09/20 10:17:49;;;;;;;7.00;4.13;;;;;;;27.23;100.00;96110.25;5054379;28;20182;-80
2021/09/20 10:20:18;;;;;;;8.98;4.80;;;;;;;27.68;100.00;96100.56;5054406;28;20224;-80
2021/09/20 10:22:46;;;;;;;7.57;4.75;;;;;;;28.11;100.00;96095.63;5054065;28;20206;-80
2021/09/20 10:25:15;;;;;;;6.65;4.38;;;;;;;28.14;100.00;96110.50;5053260;28;20670;-80
2021/09/20 10:27:43;;;;;;;5.35;4.65;;;;;;;27.44;100.00;96112.97;5054144;28;20276;-80
2021/09/20 10:30:15;;;;;;;5.55;4.90;;;;;;;27.26;100.00;96095.41;5054265;28;20686;-80
2021/09/20 10:32:44;;;;;;;6.07;5.40;;;;;;;27.52;100.00;96101.63;5054091;28;20225;-80
2021/09/20 10:35:35;;;;;;;7.15;5.20;;;;;;;27.25;100.00;96097.28;5054161;28;20229;-80
2021/09/20 10:38:05;;;;;;;4.65;4.20;;;;;;;27.20;100.00;96086.50;5054123;28;20190;-80
2021/09/20 10:40:33;;;;;;;5.82;5.28;;;;;;;27.20;100.00;96085.72;5054076;28;20260;-80
2021/09/20 10:43:04;;;;;;;5.43;4.53;;;;;;;27.35;100.00;96085.69;5053819;28;20292;-81
2021/09/20 10:45:53;;;;;;;7.13;5.28;;;;;;;27.38;100.00;96081.66;5054282;28;20189;-80
2021/09/20 10:49:01;;;;;;;5.25;4.68;;;;;;;27.54;100.00;96090.56;5053825;28;20247;-80
2021/09/20 10:51:35;;;;;;;5.18;4.70;;;;;;;27.46;100.00;96081.13;5053802;28;20194;-81
2021/09/20 10:54:23;;;;;;;4.72;4.32;;;;;;;27.58;100.00;96078.97;5053424;28;20313;-80
2021/09/20 10:56:53;;;;;;;6.35;4.85;;;;;;;27.50;100.00;96082.19;5053963;28;20202;-80
2021/09/20 10:59:28;;;;;;;10.10;4.80;;;;;;;27.26;100.00;96088.16;5053979;28;20198;-80
2021/09/20 11:02:04;;;;;;;7.10;5.18;;;;;;;27.29;100.00;96083.28;5053755;28;20656;-80
2021/09/20 11:04:34;;;;;;;7.63;5.05;;;;;;;27.74;100.00;96077.03;5053769;28;20193;-80
2021/09/20 11:07:12;;;;;;;7.05;4.07;;;;;;;27.78;100.00;96075.47;5053967;28;20280;-80
2021/09/20 11:10:10;;;;;;;7.07;4.32;;;;;;;28.19;100.00;96078.84;5053561;28;20220;-81
2021/09/20 11:13:02;;;;;;;9.00;4.55;;;;;;;28.41;100.00;96064.22;5041111;28;20684;-81
2021/09/20 11:15:39;;;;;;;4.43;4.05;;;;;;;27.88;100.00;96061.13;5053451;28;20210;-81
2021/09/20 11:18:08;;;;;;;5.63;4.78;;;;;;;26.97;100.00;96077.00;5053557;28;20568;-80
2021/09/20 11:20:38;;;;;;;5.13;3.83;;;;;;;26.59;100.00;96062.09;5053320;28;20308;-80
2021/09/20 11:23:22;;;;;;;8.35;4.53;;;;;;;26.08;100.00;96048.38;5053071;28;20202;-80
2021/09/20 11:26:13;;;;;;;7.25;4.95;;;;;;;26.09;100.00;96050.03;5053496;28;20190;-80
2021/09/20 11:28:43;;;;;;;7.30;3.85;;;;;;;25.92;100.00;96044.00;5053305;28;20661;-80
2021/09/20 11:31:11;;;;;;;6.57;4.25;;;;;;;25.82;100.00;96042.88;5052953;28;20228;-81
2021/09/20 11:33:42;;;;;;;6.82;4.47;;;;;;;26.23;100.00;96034.19;5053415;28;20252;-80